sensor_id;sensor_type;location;lat;lon;timestamp;temperature;humidity
7574;DHT22;3828;48.922;9.116;2022-11-10T00:00:59;11.90;99.90
7574;DHT22;3828;48.922;9.116;2022-11-10T00:03:28;11.90;99.90
7574;DHT22;3828;48.922;9.116;2022-11-10T00:05:55;11.90;99.90
7574;DHT22;3828;48.922;9.116;2022-11-10T00:08:22;11.90;99.90
7574;DHT22;3828;48.922;9.116;2022-11-10T00:10:48;12.50;99.90
7574;DHT22;3828;48.922;9.116;2022-11-10T00:13:29;11.90;99.90
7574;DHT22;3828;48.922;9.116;2022-11-10T00:16:00;11.80;99.90
7574;DHT22;3828;48.922;9.116;2022-11-10T00:18:44;12.80;99.90
7574;DHT22;3828;48.922;9.116;2022-11-10T00:21:12;11.80;99.90
7574;DHT22;3828;48.922;9.116;2022-11-10T00:23:40;14.40;99.90
7574;DHT22;3828;48.922;9.116;2022-11-10T00:26:12;11.70;99.90
7574;DHT22;3828;48.922;9.116;2022-11-10T00:28:40;11.70;99.90
7574;DHT22;3828;48.922;9.116;2022-11-10T00:31:08;12.40;99.90
7574;DHT22;3828;48.922;9.116;2022-11-10T00:33:35;11.70;99.90
7574;DHT22;3828;48.922;9.116;2022-11-10T00:36:03;11.70;99.90
7574;DHT22;3828;48.922;9.116;2022-11-10T00:38:30;11.70;99.90
7574;DHT22;3828;48.922;9.116;2022-11-10T00:40:57;11.70;99.90
7574;DHT22;3828;48.922;9.116;2022-11-10T00:43:25;11.60;99.90
7574;DHT22;3828;48.922;9.116;2022-11-10T00:45:53;11.50;99.90
7574;DHT22;3828;48.922;9.116;2022-11-10T00:48:20;11.70;99.90
7574;DHT22;3828;48.922;9.116;2022-11-10T00:50:47;14.00;99.90
7574;DHT22;3828;48.922;9.116;2022-11-10T00:53:14;13.30;99.90
7574;DHT22;3828;48.922;9.116;2022-11-10T00:55:41;11.50;99.90
7574;DHT22;3828;48.922;9.116;2022-11-10T00:58:08;13.20;99.90
7574;DHT22;3828;48.922;9.116;2022-11-10T01:00:35;11.50;99.90
7574;DHT22;3828;48.922;9.116;2022-11-10T01:03:03;14.70;99.90
7574;DHT22;3828;48.922;9.116;2022-11-10T01:05:30;11.40;99.90
7574;DHT22;3828;48.922;9.116;2022-11-10T01:07:57;11.90;99.90
7574;DHT22;3828;48.922;9.116;2022-11-10T01:10:25;11.60;99.90
7574;DHT22;3828;48.922;9.116;2022-11-10T01:12:52;11.50;99.90
7574;DHT22;3828;48.922;9.116;2022-11-10T01:15:20;11.50;99.90
7574;DHT22;3828;48.922;9.116;2022-11-10T01:17:47;11.40;99.90
7574;DHT22;3828;48.922;9.116;2022-11-10T01:20:15;11.40;99.90
7574;DHT22;3828;48.922;9.116;2022-11-10T01:22:42;11.40;99.90
7574;DHT22;3828;48.922;9.116;2022-11-10T01:25:09;11.30;99.90
7574;DHT22;3828;48.922;9.116;2022-11-10T01:27:36;12.40;99.90
7574;DHT22;3828;48.922;9.116;2022-11-10T01:30:04;11.30;99.90
7574;DHT22;3828;48.922;9.116;2022-11-10T01:32:30;11.30;99.90
7574;DHT22;3828;48.922;9.116;2022-11-10T01:34:57;11.30;99.90
7574;DHT22;3828;48.922;9.116;2022-11-10T01:37:25;11.90;99.90
7574;DHT22;3828;48.922;9.116;2022-11-10T01:39:52;11.30;99.90
7574;DHT22;3828;48.922;9.116;2022-11-10T01:42:24;11.30;99.90
7574;DHT22;3828;48.922;9.116;2022-11-10T01:48:03;11.30;99.90
7574;DHT22;3828;48.922;9.116;2022-11-10T01:50:35;11.40;99.90
7574;DHT22;3828;48.922;9.116;2022-11-10T01:53:07;11.70;99.90
7574;DHT22;3828;48.922;9.116;2022-11-10T01:55:36;12.50;99.90
7574;DHT22;3828;48.922;9.116;2022-11-10T01:58:05;12.00;99.90
7574;DHT22;3828;48.922;9.116;2022-11-10T02:00:32;11.30;99.90
7574;DHT22;3828;48.922;9.116;2022-11-10T02:03:02;11.30;99.90
7574;DHT22;3828;48.922;9.116;2022-11-10T02:05:29;11.20;99.90
7574;DHT22;3828;48.922;9.116;2022-11-10T02:07:57;11.90;99.90
7574;DHT22;3828;48.922;9.116;2022-11-10T02:10:26;11.20;99.90
7574;DHT22;3828;48.922;9.116;2022-11-10T02:12:53;11.00;99.90
7574;DHT22;3828;48.922;9.116;2022-11-10T02:15:20;14.40;99.90
7574;DHT22;3828;48.922;9.116;2022-11-10T02:17:47;10.80;99.90
7574;DHT22;3828;48.922;9.116;2022-11-10T02:20:18;11.00;99.90
7574;DHT22;3828;48.922;9.116;2022-11-10T02:22:46;10.70;99.90
7574;DHT22;3828;48.922;9.116;2022-11-10T02:25:16;11.50;99.90
7574;DHT22;3828;48.922;9.116;2022-11-10T02:27:44;12.20;99.90
7574;DHT22;3828;48.922;9.116;2022-11-10T02:30:11;10.30;99.90
7574;DHT22;3828;48.922;9.116;2022-11-10T02:32:38;10.10;99.90
7574;DHT22;3828;48.922;9.116;2022-11-10T02:35:06;10.00;99.90
7574;DHT22;3828;48.922;9.116;2022-11-10T02:37:33;9.90;99.90
7574;DHT22;3828;48.922;9.116;2022-11-10T02:40:02;9.90;99.90
7574;DHT22;3828;48.922;9.116;2022-11-10T02:42:28;9.80;99.90
7574;DHT22;3828;48.922;9.116;2022-11-10T02:44:56;10.30;99.90
7574;DHT22;3828;48.922;9.116;2022-11-10T02:47:23;9.90;99.90
7574;DHT22;3828;48.922;9.116;2022-11-10T02:49:49;11.80;99.90
7574;DHT22;3828;48.922;9.116;2022-11-10T02:52:16;10.70;99.90
7574;DHT22;3828;48.922;9.116;2022-11-10T02:54:43;9.80;99.90
7574;DHT22;3828;48.922;9.116;2022-11-10T02:57:11;9.70;99.90
7574;DHT22;3828;48.922;9.116;2022-11-10T02:59:38;10.80;99.90
7574;DHT22;3828;48.922;9.116;2022-11-10T03:02:05;9.80;99.90
7574;DHT22;3828;48.922;9.116;2022-11-10T03:04:31;10.50;99.90
7574;DHT22;3828;48.922;9.116;2022-11-10T03:06:58;10.90;99.90
7574;DHT22;3828;48.922;9.116;2022-11-10T03:09:25;9.80;99.90
7574;DHT22;3828;48.922;9.116;2022-11-10T03:11:51;9.80;99.90
7574;DHT22;3828;48.922;9.116;2022-11-10T03:14:20;9.90;99.90
7574;DHT22;3828;48.922;9.116;2022-11-10T03:16:46;10.10;99.90
7574;DHT22;3828;48.922;9.116;2022-11-10T03:19:13;11.10;99.90
7574;DHT22;3828;48.922;9.116;2022-11-10T03:21:40;10.00;99.90
7574;DHT22;3828;48.922;9.116;2022-11-10T03:24:07;10.00;99.90
7574;DHT22;3828;48.922;9.116;2022-11-10T03:26:33;10.00;99.90
7574;DHT22;3828;48.922;9.116;2022-11-10T03:29:00;11.30;99.90
7574;DHT22;3828;48.922;9.116;2022-11-10T03:31:28;10.10;99.90
7574;DHT22;3828;48.922;9.116;2022-11-10T03:33:55;13.30;99.90
7574;DHT22;3828;48.922;9.116;2022-11-10T03:36:22;9.40;99.90
7574;DHT22;3828;48.922;9.116;2022-11-10T03:38:48;10.00;99.90
7574;DHT22;3828;48.922;9.116;2022-11-10T03:41:15;10.00;99.90
7574;DHT22;3828;48.922;9.116;2022-11-10T03:43:42;10.10;99.90
7574;DHT22;3828;48.922;9.116;2022-11-10T03:46:09;13.70;99.90
7574;DHT22;3828;48.922;9.116;2022-11-10T03:48:37;10.10;99.90
7574;DHT22;3828;48.922;9.116;2022-11-10T03:51:04;9.90;99.90
7574;DHT22;3828;48.922;9.116;2022-11-10T03:53:31;11.50;99.90
7574;DHT22;3828;48.922;9.116;2022-11-10T03:55:59;11.40;99.90
7574;DHT22;3828;48.922;9.116;2022-11-10T03:58:26;11.30;99.90
7574;DHT22;3828;48.922;9.116;2022-11-10T04:00:53;10.40;99.90
7574;DHT22;3828;48.922;9.116;2022-11-10T04:03:20;9.90;99.90
7574;DHT22;3828;48.922;9.116;2022-11-10T04:05:48;9.80;99.90
7574;DHT22;3828;48.922;9.116;2022-11-10T04:08:32;9.90;99.90
7574;DHT22;3828;48.922;9.116;2022-11-10T04:11:16;9.80;99.90
7574;DHT22;3828;48.922;9.116;2022-11-10T04:14:03;9.70;99.90
7574;DHT22;3828;48.922;9.116;2022-11-10T04:16:53;11.10;99.90
7574;DHT22;3828;48.922;9.116;2022-11-10T04:19:20;9.60;99.90
7574;DHT22;3828;48.922;9.116;2022-11-10T04:21:48;9.60;99.90
7574;DHT22;3828;48.922;9.116;2022-11-10T04:24:16;11.40;99.90
7574;DHT22;3828;48.922;9.116;2022-11-10T04:26:43;10.30;99.90
7574;DHT22;3828;48.922;9.116;2022-11-10T04:29:12;9.50;99.90
7574;DHT22;3828;48.922;9.116;2022-11-10T04:31:40;9.50;99.90
7574;DHT22;3828;48.922;9.116;2022-11-10T04:34:09;9.50;99.90
7574;DHT22;3828;48.922;9.116;2022-11-10T04:36:37;9.50;99.90
7574;DHT22;3828;48.922;9.116;2022-11-10T04:39:07;13.20;99.90
7574;DHT22;3828;48.922;9.116;2022-11-10T04:41:34;10.70;99.90
7574;DHT22;3828;48.922;9.116;2022-11-10T04:44:01;9.50;99.90
7574;DHT22;3828;48.922;9.116;2022-11-10T04:46:29;9.50;99.90
7574;DHT22;3828;48.922;9.116;2022-11-10T04:48:57;9.50;99.90
7574;DHT22;3828;48.922;9.116;2022-11-10T04:51:27;9.50;99.90
7574;DHT22;3828;48.922;9.116;2022-11-10T04:53:54;10.10;99.90
7574;DHT22;3828;48.922;9.116;2022-11-10T04:56:23;9.60;99.90
7574;DHT22;3828;48.922;9.116;2022-11-10T04:58:50;9.50;99.90
7574;DHT22;3828;48.922;9.116;2022-11-10T05:01:19;9.50;99.90
7574;DHT22;3828;48.922;9.116;2022-11-10T05:03:47;9.50;99.90
7574;DHT22;3828;48.922;9.116;2022-11-10T05:06:14;9.50;99.90
7574;DHT22;3828;48.922;9.116;2022-11-10T05:08:42;9.40;99.90
7574;DHT22;3828;48.922;9.116;2022-11-10T05:11:09;9.40;99.90
7574;DHT22;3828;48.922;9.116;2022-11-10T05:13:38;9.50;99.90
7574;DHT22;3828;48.922;9.116;2022-11-10T05:16:05;11.20;99.90
7574;DHT22;3828;48.922;9.116;2022-11-10T05:18:32;9.30;99.90
7574;DHT22;3828;48.922;9.116;2022-11-10T05:20:59;9.30;99.90
7574;DHT22;3828;48.922;9.116;2022-11-10T05:23:26;9.90;99.90
7574;DHT22;3828;48.922;9.116;2022-11-10T05:26:07;9.30;99.90
7574;DHT22;3828;48.922;9.116;2022-11-10T05:28:34;9.30;99.90
7574;DHT22;3828;48.922;9.116;2022-11-10T05:31:03;9.30;99.90
7574;DHT22;3828;48.922;9.116;2022-11-10T05:33:30;9.40;99.90
7574;DHT22;3828;48.922;9.116;2022-11-10T05:35:56;11.30;99.90
7574;DHT22;3828;48.922;9.116;2022-11-10T05:38:23;9.40;99.90
7574;DHT22;3828;48.922;9.116;2022-11-10T05:40:51;9.30;99.90
7574;DHT22;3828;48.922;9.116;2022-11-10T05:43:18;10.10;99.90
7574;DHT22;3828;48.922;9.116;2022-11-10T05:45:45;9.30;99.90
7574;DHT22;3828;48.922;9.116;2022-11-10T05:48:13;11.90;99.90
7574;DHT22;3828;48.922;9.116;2022-11-10T05:50:40;13.30;99.90
7574;DHT22;3828;48.922;9.116;2022-11-10T05:53:07;9.00;99.90
7574;DHT22;3828;48.922;9.116;2022-11-10T05:55:34;8.90;99.90
7574;DHT22;3828;48.922;9.116;2022-11-10T05:58:01;8.80;99.90
7574;DHT22;3828;48.922;9.116;2022-11-10T06:00:30;8.90;99.90
7574;DHT22;3828;48.922;9.116;2022-11-10T06:02:58;11.30;99.90
7574;DHT22;3828;48.922;9.116;2022-11-10T06:05:27;8.60;99.90
7574;DHT22;3828;48.922;9.116;2022-11-10T06:07:54;8.70;99.90
7574;DHT22;3828;48.922;9.116;2022-11-10T06:10:21;8.70;99.90
7574;DHT22;3828;48.922;9.116;2022-11-10T06:12:48;9.10;99.90
7574;DHT22;3828;48.922;9.116;2022-11-10T06:15:14;10.40;99.90
7574;DHT22;3828;48.922;9.116;2022-11-10T06:17:41;8.70;99.90
7574;DHT22;3828;48.922;9.116;2022-11-10T06:20:09;8.70;99.90
7574;DHT22;3828;48.922;9.116;2022-11-10T06:22:38;8.60;99.90
7574;DHT22;3828;48.922;9.116;2022-11-10T06:25:05;9.10;99.90
7574;DHT22;3828;48.922;9.116;2022-11-10T06:27:32;8.50;99.90
7574;DHT22;3828;48.922;9.116;2022-11-10T06:29:59;8.50;99.90
7574;DHT22;3828;48.922;9.116;2022-11-10T06:32:26;8.50;99.90
7574;DHT22;3828;48.922;9.116;2022-11-10T06:34:53;11.50;99.90
7574;DHT22;3828;48.922;9.116;2022-11-10T06:37:20;8.40;99.90
7574;DHT22;3828;48.922;9.116;2022-11-10T06:39:48;8.40;99.90
7574;DHT22;3828;48.922;9.116;2022-11-10T06:42:14;8.40;99.90
7574;DHT22;3828;48.922;9.116;2022-11-10T06:44:41;12.10;99.90
7574;DHT22;3828;48.922;9.116;2022-11-10T06:47:08;8.40;99.90
7574;DHT22;3828;48.922;9.116;2022-11-10T06:49:35;8.40;99.90
7574;DHT22;3828;48.922;9.116;2022-11-10T06:52:02;10.30;99.90
7574;DHT22;3828;48.922;9.116;2022-11-10T06:54:28;8.30;99.90
7574;DHT22;3828;48.922;9.116;2022-11-10T06:56:57;8.40;99.90
7574;DHT22;3828;48.922;9.116;2022-11-10T06:59:23;8.30;99.90
7574;DHT22;3828;48.922;9.116;2022-11-10T07:01:50;8.40;99.90
7574;DHT22;3828;48.922;9.116;2022-11-10T07:04:17;8.40;99.90
7574;DHT22;3828;48.922;9.116;2022-11-10T07:06:45;8.40;99.90
7574;DHT22;3828;48.922;9.116;2022-11-10T07:09:12;11.60;99.90
7574;DHT22;3828;48.922;9.116;2022-11-10T07:11:39;8.60;99.90
7574;DHT22;3828;48.922;9.116;2022-11-10T07:14:07;11.40;99.90
7574;DHT22;3828;48.922;9.116;2022-11-10T07:16:34;8.70;99.90
7574;DHT22;3828;48.922;9.116;2022-11-10T07:19:00;8.80;99.90
7574;DHT22;3828;48.922;9.116;2022-11-10T07:21:27;9.00;99.90
7574;DHT22;3828;48.922;9.116;2022-11-10T07:23:54;9.00;99.90
7574;DHT22;3828;48.922;9.116;2022-11-10T07:26:21;9.20;99.90
7574;DHT22;3828;48.922;9.116;2022-11-10T07:28:47;9.20;99.90
7574;DHT22;3828;48.922;9.116;2022-11-10T07:31:16;9.30;99.90
7574;DHT22;3828;48.922;9.116;2022-11-10T07:33:42;9.30;99.90
7574;DHT22;3828;48.922;9.116;2022-11-10T07:36:10;12.60;99.90
7574;DHT22;3828;48.922;9.116;2022-11-10T07:38:40;9.40;99.90
7574;DHT22;3828;48.922;9.116;2022-11-10T07:41:07;9.30;99.90
7574;DHT22;3828;48.922;9.116;2022-11-10T07:43:33;10.60;99.90
7574;DHT22;3828;48.922;9.116;2022-11-10T07:46:00;10.80;99.90
7574;DHT22;3828;48.922;9.116;2022-11-10T07:48:29;10.00;99.90
7574;DHT22;3828;48.922;9.116;2022-11-10T07:50:56;10.40;99.90
7574;DHT22;3828;48.922;9.116;2022-11-10T07:53:22;12.20;99.90
7574;DHT22;3828;48.922;9.116;2022-11-10T07:55:49;11.60;99.90
7574;DHT22;3828;48.922;9.116;2022-11-10T07:58:16;12.30;99.90
7574;DHT22;3828;48.922;9.116;2022-11-10T08:00:44;12.70;99.90
7574;DHT22;3828;48.922;9.116;2022-11-10T08:03:13;13.10;99.90
7574;DHT22;3828;48.922;9.116;2022-11-10T08:05:41;13.30;99.90
7574;DHT22;3828;48.922;9.116;2022-11-10T08:08:09;13.40;99.90
7574;DHT22;3828;48.922;9.116;2022-11-10T08:10:36;13.80;99.90
7574;DHT22;3828;48.922;9.116;2022-11-10T08:13:05;14.00;99.90
7574;DHT22;3828;48.922;9.116;2022-11-10T08:15:33;13.80;99.90
7574;DHT22;3828;48.922;9.116;2022-11-10T08:18:01;13.70;99.90
7574;DHT22;3828;48.922;9.116;2022-11-10T08:20:28;14.50;99.90
7574;DHT22;3828;48.922;9.116;2022-11-10T08:22:57;13.40;99.90
7574;DHT22;3828;48.922;9.116;2022-11-10T08:25:25;15.40;99.90
7574;DHT22;3828;48.922;9.116;2022-11-10T08:27:56;12.60;99.90
7574;DHT22;3828;48.922;9.116;2022-11-10T08:30:24;12.70;99.90
7574;DHT22;3828;48.922;9.116;2022-11-10T08:32:53;12.70;99.90
7574;DHT22;3828;48.922;9.116;2022-11-10T08:35:20;12.70;99.90
7574;DHT22;3828;48.922;9.116;2022-11-10T08:37:47;12.80;99.90
7574;DHT22;3828;48.922;9.116;2022-11-10T08:40:16;13.20;99.90
7574;DHT22;3828;48.922;9.116;2022-11-10T08:42:42;13.40;99.90
7574;DHT22;3828;48.922;9.116;2022-11-10T08:45:10;13.80;99.90
7574;DHT22;3828;48.922;9.116;2022-11-10T08:47:37;14.30;99.90
7574;DHT22;3828;48.922;9.116;2022-11-10T08:50:04;14.60;99.90
7574;DHT22;3828;48.922;9.116;2022-11-10T08:52:31;14.40;99.90
7574;DHT22;3828;48.922;9.116;2022-11-10T08:54:58;15.30;99.90
7574;DHT22;3828;48.922;9.116;2022-11-10T08:57:26;15.60;99.90
7574;DHT22;3828;48.922;9.116;2022-11-10T08:59:53;16.10;99.90
7574;DHT22;3828;48.922;9.116;2022-11-10T09:02:20;16.20;99.90
7574;DHT22;3828;48.922;9.116;2022-11-10T09:04:46;16.60;99.90
7574;DHT22;3828;48.922;9.116;2022-11-10T09:07:13;16.80;99.90
7574;DHT22;3828;48.922;9.116;2022-11-10T09:09:40;16.60;99.90
7574;DHT22;3828;48.922;9.116;2022-11-10T09:12:07;16.70;99.90
7574;DHT22;3828;48.922;9.116;2022-11-10T09:14:35;16.70;99.90
7574;DHT22;3828;48.922;9.116;2022-11-10T09:17:02;16.60;99.90
7574;DHT22;3828;48.922;9.116;2022-11-10T09:19:28;13.90;99.90
7574;DHT22;3828;48.922;9.116;2022-11-10T09:21:55;16.70;99.90
7574;DHT22;3828;48.922;9.116;2022-11-10T09:24:22;17.10;99.90
7574;DHT22;3828;48.922;9.116;2022-11-10T09:26:49;17.60;99.90
7574;DHT22;3828;48.922;9.116;2022-11-10T09:29:16;17.60;99.90
7574;DHT22;3828;48.922;9.116;2022-11-10T09:31:44;17.60;99.90
7574;DHT22;3828;48.922;9.116;2022-11-10T09:34:11;17.80;99.90
7574;DHT22;3828;48.922;9.116;2022-11-10T09:36:38;17.80;99.90
7574;DHT22;3828;48.922;9.116;2022-11-10T09:39:05;18.80;99.90
7574;DHT22;3828;48.922;9.116;2022-11-10T09:41:32;20.00;99.90
7574;DHT22;3828;48.922;9.116;2022-11-10T09:44:02;20.60;99.90
7574;DHT22;3828;48.922;9.116;2022-11-10T09:46:35;21.20;99.90
7574;DHT22;3828;48.922;9.116;2022-11-10T09:49:11;20.80;99.90
7574;DHT22;3828;48.922;9.116;2022-11-10T09:51:42;20.80;99.90
7574;DHT22;3828;48.922;9.116;2022-11-10T09:54:21;20.40;99.90
7574;DHT22;3828;48.922;9.116;2022-11-10T09:56:50;20.40;99.90
7574;DHT22;3828;48.922;9.116;2022-11-10T09:59:24;20.40;99.90
7574;DHT22;3828;48.922;9.116;2022-11-10T10:01:57;20.50;99.90
7574;DHT22;3828;48.922;9.116;2022-11-10T10:04:43;21.00;99.90
7574;DHT22;3828;48.922;9.116;2022-11-10T10:07:15;22.10;99.90
7574;DHT22;3828;48.922;9.116;2022-11-10T10:09:48;23.20;99.90
7574;DHT22;3828;48.922;9.116;2022-11-10T10:12:24;22.90;99.90
7574;DHT22;3828;48.922;9.116;2022-11-10T10:15:10;23.20;99.90
7574;DHT22;3828;48.922;9.116;2022-11-10T10:17:45;23.30;99.90
7574;DHT22;3828;48.922;9.116;2022-11-10T10:20:21;22.50;99.90
7574;DHT22;3828;48.922;9.116;2022-11-10T10:23:00;21.90;99.90
7574;DHT22;3828;48.922;9.116;2022-11-10T10:25:30;23.20;99.90
7574;DHT22;3828;48.922;9.116;2022-11-10T10:28:01;23.80;99.90
7574;DHT22;3828;48.922;9.116;2022-11-10T10:30:30;22.90;99.90
7574;DHT22;3828;48.922;9.116;2022-11-10T10:33:07;23.00;99.90
7574;DHT22;3828;48.922;9.116;2022-11-10T10:35:38;23.10;99.90
7574;DHT22;3828;48.922;9.116;2022-11-10T10:38:11;23.20;99.90
7574;DHT22;3828;48.922;9.116;2022-11-10T10:40:41;23.40;99.90
7574;DHT22;3828;48.922;9.116;2022-11-10T10:43:08;23.80;99.90
7574;DHT22;3828;48.922;9.116;2022-11-10T10:45:35;24.80;99.90
7574;DHT22;3828;48.922;9.116;2022-11-10T10:48:22;25.40;99.90
7574;DHT22;3828;48.922;9.116;2022-11-10T10:50:50;25.30;99.90
7574;DHT22;3828;48.922;9.116;2022-11-10T10:53:18;23.80;99.90
7574;DHT22;3828;48.922;9.116;2022-11-10T10:55:47;24.10;99.90
7574;DHT22;3828;48.922;9.116;2022-11-10T10:58:20;24.40;99.90
7574;DHT22;3828;48.922;9.116;2022-11-10T11:00:49;25.50;99.90
7574;DHT22;3828;48.922;9.116;2022-11-10T11:03:28;26.00;99.90
7574;DHT22;3828;48.922;9.116;2022-11-10T11:06:05;26.50;99.90
7574;DHT22;3828;48.922;9.116;2022-11-10T11:08:33;26.20;99.90
7574;DHT22;3828;48.922;9.116;2022-11-10T11:11:08;26.20;99.90
7574;DHT22;3828;48.922;9.116;2022-11-10T11:13:38;25.60;99.90
7574;DHT22;3828;48.922;9.116;2022-11-10T11:16:07;25.70;99.90
7574;DHT22;3828;48.922;9.116;2022-11-10T11:18:38;25.00;99.90
7574;DHT22;3828;48.922;9.116;2022-11-10T11:21:18;24.70;99.90
7574;DHT22;3828;48.922;9.116;2022-11-10T11:24:01;24.60;99.90
7574;DHT22;3828;48.922;9.116;2022-11-10T11:26:36;24.20;99.90
7574;DHT22;3828;48.922;9.116;2022-11-10T11:29:15;24.10;99.90
7574;DHT22;3828;48.922;9.116;2022-11-10T11:31:54;23.10;99.90
7574;DHT22;3828;48.922;9.116;2022-11-10T11:34:30;23.70;99.90
7574;DHT22;3828;48.922;9.116;2022-11-10T11:37:02;24.00;99.90
7574;DHT22;3828;48.922;9.116;2022-11-10T11:39:40;23.70;99.90
7574;DHT22;3828;48.922;9.116;2022-11-10T11:42:23;23.90;99.90
7574;DHT22;3828;48.922;9.116;2022-11-10T11:45:03;23.50;99.90
7574;DHT22;3828;48.922;9.116;2022-11-10T11:47:39;23.30;99.90
7574;DHT22;3828;48.922;9.116;2022-11-10T11:50:19;23.60;99.90
7574;DHT22;3828;48.922;9.116;2022-11-10T11:52:56;22.60;99.90
7574;DHT22;3828;48.922;9.116;2022-11-10T11:55:34;22.20;99.90
7574;DHT22;3828;48.922;9.116;2022-11-10T11:58:22;21.90;99.90
7574;DHT22;3828;48.922;9.116;2022-11-10T12:00:58;21.30;99.90
7574;DHT22;3828;48.922;9.116;2022-11-10T12:03:35;21.10;99.90
7574;DHT22;3828;48.922;9.116;2022-11-10T12:06:23;21.50;99.90
7574;DHT22;3828;48.922;9.116;2022-11-10T12:08:59;22.00;99.90
7574;DHT22;3828;48.922;9.116;2022-11-10T12:11:33;21.20;99.90
7574;DHT22;3828;48.922;9.116;2022-11-10T12:14:08;21.70;99.90
7574;DHT22;3828;48.922;9.116;2022-11-10T12:16:38;21.10;99.90
7574;DHT22;3828;48.922;9.116;2022-11-10T12:19:21;21.80;99.90
7574;DHT22;3828;48.922;9.116;2022-11-10T12:21:53;22.20;99.90
7574;DHT22;3828;48.922;9.116;2022-11-10T12:24:38;21.90;99.90
7574;DHT22;3828;48.922;9.116;2022-11-10T12:27:10;22.20;99.90
7574;DHT22;3828;48.922;9.116;2022-11-10T12:29:43;22.10;99.90
7574;DHT22;3828;48.922;9.116;2022-11-10T12:32:15;21.40;99.90
7574;DHT22;3828;48.922;9.116;2022-11-10T12:34:47;21.30;99.90
7574;DHT22;3828;48.922;9.116;2022-11-10T12:37:21;20.70;99.90
7574;DHT22;3828;48.922;9.116;2022-11-10T12:39:56;19.70;99.90
7574;DHT22;3828;48.922;9.116;2022-11-10T12:42:27;19.30;99.90
7574;DHT22;3828;48.922;9.116;2022-11-10T12:44:58;18.90;99.90
7574;DHT22;3828;48.922;9.116;2022-11-10T12:47:29;18.70;99.90
7574;DHT22;3828;48.922;9.116;2022-11-10T12:50:15;18.60;99.90
7574;DHT22;3828;48.922;9.116;2022-11-10T12:52:49;18.10;99.90
7574;DHT22;3828;48.922;9.116;2022-11-10T12:55:20;17.60;99.90
7574;DHT22;3828;48.922;9.116;2022-11-10T12:57:51;17.10;99.90
7574;DHT22;3828;48.922;9.116;2022-11-10T13:00:24;16.70;99.90
7574;DHT22;3828;48.922;9.116;2022-11-10T13:02:52;16.70;99.90
7574;DHT22;3828;48.922;9.116;2022-11-10T13:05:26;16.40;99.90
7574;DHT22;3828;48.922;9.116;2022-11-10T13:08:16;16.20;99.90
7574;DHT22;3828;48.922;9.116;2022-11-10T13:10:54;16.10;99.90
7574;DHT22;3828;48.922;9.116;2022-11-10T13:13:22;16.00;99.90
7574;DHT22;3828;48.922;9.116;2022-11-10T13:15:54;15.80;99.90
7574;DHT22;3828;48.922;9.116;2022-11-10T13:18:51;15.60;99.90
7574;DHT22;3828;48.922;9.116;2022-11-10T13:24:26;15.40;99.90
7574;DHT22;3828;48.922;9.116;2022-11-10T13:26:55;15.30;99.90
7574;DHT22;3828;48.922;9.116;2022-11-10T13:29:31;15.30;99.90
7574;DHT22;3828;48.922;9.116;2022-11-10T13:32:28;17.80;99.90
7574;DHT22;3828;48.922;9.116;2022-11-10T13:38:19;15.20;99.90
7574;DHT22;3828;48.922;9.116;2022-11-10T13:41:22;15.20;99.90
7574;DHT22;3828;48.922;9.116;2022-11-10T13:43:51;15.10;99.90
7574;DHT22;3828;48.922;9.116;2022-11-10T13:46:19;15.00;99.90
7574;DHT22;3828;48.922;9.116;2022-11-10T13:49:10;15.20;99.90
7574;DHT22;3828;48.922;9.116;2022-11-10T13:51:42;14.90;99.90
7574;DHT22;3828;48.922;9.116;2022-11-10T13:54:52;14.90;99.90
7574;DHT22;3828;48.922;9.116;2022-11-10T13:57:28;14.80;99.90
7574;DHT22;3828;48.922;9.116;2022-11-10T13:59:57;14.90;99.90
7574;DHT22;3828;48.922;9.116;2022-11-10T14:02:48;14.80;99.90
7574;DHT22;3828;48.922;9.116;2022-11-10T14:08:39;14.70;99.90
7574;DHT22;3828;48.922;9.116;2022-11-10T14:11:16;14.70;99.90
7574;DHT22;3828;48.922;9.116;2022-11-10T14:13:49;14.50;99.90
7574;DHT22;3828;48.922;9.116;2022-11-10T14:16:19;14.80;99.90
7574;DHT22;3828;48.922;9.116;2022-11-10T14:18:53;15.30;99.90
7574;DHT22;3828;48.922;9.116;2022-11-10T14:21:26;14.30;99.90
7574;DHT22;3828;48.922;9.116;2022-11-10T14:23:59;14.30;99.90
7574;DHT22;3828;48.922;9.116;2022-11-10T14:26:34;14.30;99.90
7574;DHT22;3828;48.922;9.116;2022-11-10T14:29:30;18.30;99.90
7574;DHT22;3828;48.922;9.116;2022-11-10T14:31:59;14.20;99.90
7574;DHT22;3828;48.922;9.116;2022-11-10T14:34:27;14.20;99.90
7574;DHT22;3828;48.922;9.116;2022-11-10T14:36:56;14.10;99.90
7574;DHT22;3828;48.922;9.116;2022-11-10T14:39:27;14.10;99.90
7574;DHT22;3828;48.922;9.116;2022-11-10T14:41:55;16.80;99.90
7574;DHT22;3828;48.922;9.116;2022-11-10T14:44:26;14.00;99.90
7574;DHT22;3828;48.922;9.116;2022-11-10T14:46:54;14.00;99.90
7574;DHT22;3828;48.922;9.116;2022-11-10T14:49:22;14.80;99.90
7574;DHT22;3828;48.922;9.116;2022-11-10T14:51:50;13.90;99.90
7574;DHT22;3828;48.922;9.116;2022-11-10T14:54:23;13.80;99.90
7574;DHT22;3828;48.922;9.116;2022-11-10T14:56:52;13.80;99.90
7574;DHT22;3828;48.922;9.116;2022-11-10T14:59:20;13.60;99.90
7574;DHT22;3828;48.922;9.116;2022-11-10T15:01:52;13.60;99.90
7574;DHT22;3828;48.922;9.116;2022-11-10T15:04:24;13.50;99.90
7574;DHT22;3828;48.922;9.116;2022-11-10T15:06:52;13.60;99.90
7574;DHT22;3828;48.922;9.116;2022-11-10T15:09:25;13.80;99.90
7574;DHT22;3828;48.922;9.116;2022-11-10T15:12:04;14.10;99.90
7574;DHT22;3828;48.922;9.116;2022-11-10T15:14:38;14.20;99.90
7574;DHT22;3828;48.922;9.116;2022-11-10T15:17:07;14.20;99.90
7574;DHT22;3828;48.922;9.116;2022-11-10T15:19:36;14.20;99.90
7574;DHT22;3828;48.922;9.116;2022-11-10T15:22:05;14.00;99.90
7574;DHT22;3828;48.922;9.116;2022-11-10T15:24:32;13.80;99.90
7574;DHT22;3828;48.922;9.116;2022-11-10T15:26:59;13.60;99.90
7574;DHT22;3828;48.922;9.116;2022-11-10T15:29:27;13.30;99.90
7574;DHT22;3828;48.922;9.116;2022-11-10T15:31:55;13.20;99.90
7574;DHT22;3828;48.922;9.116;2022-11-10T15:34:37;13.10;99.90
7574;DHT22;3828;48.922;9.116;2022-11-10T15:37:20;13.00;99.90
7574;DHT22;3828;48.922;9.116;2022-11-10T15:39:47;13.00;99.90
7574;DHT22;3828;48.922;9.116;2022-11-10T15:42:16;12.80;99.90
7574;DHT22;3828;48.922;9.116;2022-11-10T15:44:44;12.70;99.90
7574;DHT22;3828;48.922;9.116;2022-11-10T15:47:12;12.70;99.90
7574;DHT22;3828;48.922;9.116;2022-11-10T15:49:41;12.50;99.90
7574;DHT22;3828;48.922;9.116;2022-11-10T15:52:14;12.30;99.90
7574;DHT22;3828;48.922;9.116;2022-11-10T15:54:42;12.20;99.90
7574;DHT22;3828;48.922;9.116;2022-11-10T15:57:11;12.00;99.90
7574;DHT22;3828;48.922;9.116;2022-11-10T15:59:38;12.00;99.90
7574;DHT22;3828;48.922;9.116;2022-11-10T16:02:19;11.70;99.90
7574;DHT22;3828;48.922;9.116;2022-11-10T16:04:50;11.60;99.90
7574;DHT22;3828;48.922;9.116;2022-11-10T16:09:45;11.30;99.90
7574;DHT22;3828;48.922;9.116;2022-11-10T16:12:15;11.20;99.90
7574;DHT22;3828;48.922;9.116;2022-11-10T16:14:45;11.10;99.90
7574;DHT22;3828;48.922;9.116;2022-11-10T16:17:13;11.00;99.90
7574;DHT22;3828;48.922;9.116;2022-11-10T16:19:39;10.90;99.90
7574;DHT22;3828;48.922;9.116;2022-11-10T16:22:10;10.90;99.90
7574;DHT22;3828;48.922;9.116;2022-11-10T16:24:37;10.70;99.90
7574;DHT22;3828;48.922;9.116;2022-11-10T16:27:05;10.70;99.90
7574;DHT22;3828;48.922;9.116;2022-11-10T16:29:34;10.60;99.90
7574;DHT22;3828;48.922;9.116;2022-11-10T16:34:28;10.50;99.90
7574;DHT22;3828;48.922;9.116;2022-11-10T16:36:55;10.40;99.90
7574;DHT22;3828;48.922;9.116;2022-11-10T16:39:23;10.30;99.90
7574;DHT22;3828;48.922;9.116;2022-11-10T16:41:52;10.30;99.90